Terminal Aerodrome Forecast
Issued by NWS

Home | Current Version | Previous Version | Text Only | Print | Product List | Glossary On
Versions: 1 2 3 4 5 6 7 8 9 10 11 12 13
432
FTUS41 KLWX 291730
TAFMTN
TAF
KMTN 291730Z 2918/3018 VRB03KT P6SM OVC010
     FM292100 23005KT P6SM BKN035
     FM292300 11004KT P6SM BKN040
     FM300100 12006KT P6SM BKN015
     FM300200 12007KT P6SM BKN008
     FM300600 11005KT 3SM BR BKN003
     FM301300 12005KT 3SM BR OVC008
     FM301500 13006KT P6SM OVC010=

USA.gov is the U.S. government's official web portal to all federal, state and local government web resources and services.